^^
Grace C. Lehan Memorial Weather Station Historical Data
Daily Summary for November 16, 2021 Units:  English    Metric   Both
Daily Weekly Monthly Yearly
  High: Low: Average:
Temperature: 49.7 °F 33.5 °F 42.2 °F
Dew Point: 33.3 °F 28.8 °F 30.9 °F
Humidity: 87% 50% 65%
Wind Speed: 11mph 0mph 1.7mph
Wind Gust: 20mph - -
Wind- - WNW
Pressure: 30.22 in 29.89 in -
Precipitation: 0.00 in    
 
 
Tabular Data for November 16, 2021
Time Temperature Dew Point Pressure Wind Wind Speed Wind Gust Humidity Rainfall Rate (Hourly) solar
00:04 38.3 °F 32.1 °F 29.89 in WSW 0.3 mph 3 mph 78% 0.00 in 0 W/m2
00:09 38.3 °F 32.2 °F 29.90 in WSW 0.1 mph 1 mph 78.4% 0.00 in 0 W/m2
00:14 38.3 °F 32.4 °F 29.90 in WSW 0.4 mph 7 mph 79% 0.00 in 0 W/m2
00:19 38.3 °F 32.4 °F 29.90 in Calm   7 mph 79% 0.00 in 0 W/m2
00:24 38.4 °F 32.4 °F 29.90 in Calm   7 mph 79% 0.00 in 0 W/m2
00:29 38.4 °F 32.5 °F 29.90 in Calm   7 mph 79% 0.00 in 0 W/m2
00:34 38.4 °F 32.5 °F 29.90 in Calm   7 mph 79% 0.00 in 0 W/m2
00:39 38.4 °F 32.5 °F 29.91 in Calm     79% 0.00 in 0 W/m2
00:44 38.4 °F 32.5 °F 29.91 in Calm     79% 0.00 in 0 W/m2
00:49 38.4 °F 32.5 °F 29.91 in Calm     79% 0.00 in 0 W/m2
00:54 38.5 °F 32.5 °F 29.91 in Calm     79% 0.00 in 0 W/m2
00:59 38.5 °F 32.6 °F 29.91 in Calm     79% 0.00 in 0 W/m2
01:04 38.6 °F 32.8 °F 29.91 in WSW 0.1 mph 2 mph 79.6% 0.00 in 0 W/m2
01:09 38.6 °F 33 °F 29.92 in WSW 0.7 mph 3 mph 80% 0.00 in 0 W/m2
01:14 38.6 °F 32.8 °F 29.92 in WSW 0.5 mph 9 mph 79.4% 0.00 in 0 W/m2
01:19 38.7 °F 32.8 °F 29.92 in WSW 0.4 mph 9 mph 79% 0.00 in 0 W/m2
01:24 38.8 °F 32.8 °F 29.92 in WSW 0.1 mph 9 mph 78.8% 0.00 in 0 W/m2
01:29 38.9 °F 33 °F 29.92 in Calm   9 mph 79% 0.00 in 0 W/m2
01:34 38.9 °F 33 °F 29.92 in Calm   9 mph 79% 0.00 in 0 W/m2
01:39 38.9 °F 33 °F 29.92 in Calm   1 mph 79% 0.00 in 0 W/m2
01:44 39 °F 33 °F 29.93 in Calm   1 mph 79% 0.00 in 0 W/m2
01:49 39 °F 33 °F 29.93 in Calm   1 mph 79% 0.00 in 0 W/m2
01:54 38.9 °F 33.1 °F 29.93 in Calm   1 mph 79.2% 0.00 in 0 W/m2
01:59 38.9 °F 33.3 °F 29.93 in Calm   1 mph 80% 0.00 in 0 W/m2
02:04 38.9 °F 33.3 °F 29.94 in Calm   1 mph 80% 0.00 in 0 W/m2
02:09 38.9 °F 33.2 °F 29.93 in Calm     80% 0.00 in 0 W/m2
02:11 38.8 °F 33.2 °F 29.93 in Calm     80% 0.00 in 0 W/m2
02:30 38.6 °F 33.3 °F 29.93 in Calm   1 mph 81% 0.00 in 0 W/m2
03:00 38.3 °F 32.7 °F 29.93 in Calm   4 mph 80% 0.00 in 0 W/m2
03:30 38.6 °F 30.4 °F 29.94 in WNW 3 mph 17 mph 72% 0.00 in 0 W/m2
04:04 38.9 °F 29.7 °F 29.95 in WNW 2.8 mph 17 mph 69.3% 0.00 in 0 W/m2
04:09 38.9 °F 29.2 °F 29.96 in West 2.9 mph 14 mph 68% 0.00 in 0 W/m2
04:14 39.1 °F 29.1 °F 29.96 in WNW 4.9 mph 14 mph 67.2% 0.00 in 0 W/m2
04:19 39.1 °F 29.1 °F 29.96 in WNW 2.8 mph 14 mph 67% 0.00 in 0 W/m2
04:24 39.1 °F 29.1 °F 29.97 in West 1.2 mph 14 mph 67% 0.00 in 0 W/m2
04:29 39 °F 29 °F 29.97 in WNW 2.4 mph 14 mph 67% 0.00 in 0 W/m2
04:34 38.9 °F 28.9 °F 29.97 in NW 0.2 mph 14 mph 67% 0.00 in 0 W/m2
04:39 38.8 °F 29 °F 29.97 in WNW 0.6 mph 4 mph 67.6% 0.00 in 0 W/m2
04:44 38.6 °F 29 °F 29.98 in WNW 0.6 mph 5 mph 68% 0.00 in 0 W/m2
04:49 38.4 °F 28.8 °F 29.98 in WNW 1.4 mph 6 mph 68% 0.00 in 0 W/m2
04:54 38.3 °F 29 °F 29.98 in West 1.5 mph 9 mph 69% 0.00 in 0 W/m2
04:59 38.2 °F 28.9 °F 29.98 in West 1.4 mph 9 mph 69% 0.00 in 0 W/m2
05:04 38.1 °F 29.1 °F 29.98 in West 0.1 mph 9 mph 69.8% 0.00 in 0 W/m2
05:09 38 °F 28.9 °F 29.98 in West 0.2 mph 3 mph 69.6% 0.00 in 0 W/m2
05:14 37.9 °F 29 °F 29.99 in WNW 0.5 mph 4 mph 70% 0.00 in 0 W/m2
05:19 37.8 °F 28.9 °F 29.99 in Calm   4 mph 70% 0.00 in 0 W/m2
05:24 37.6 °F 29 °F 29.99 in NW 2.1 mph 12 mph 70.8% 0.00 in 0 W/m2
05:29 37.6 °F 29.1 °F 29.99 in WNW 2.3 mph 12 mph 71% 0.00 in 0 W/m2
05:34 37.6 °F 29.1 °F 30.00 in WNW 3.5 mph 12 mph 71% 0.00 in 0 W/m2
05:39 37.7 °F 29.1 °F 30.00 in WNW 5.5 mph 16 mph 71% 0.00 in 0 W/m2
05:44 37.8 °F 29.1 °F 30.00 in WNW 2.9 mph 16 mph 70.4% 0.00 in 0 W/m2
05:49 37.9 °F 29.1 °F 30.00 in WNW 4.8 mph 16 mph 70.2% 0.00 in 0 W/m2
05:54 38 °F 29.1 °F 30.00 in WNW 2.2 mph 16 mph 70% 0.00 in 0 W/m2
05:59 38 °F 29.1 °F 30.00 in WNW 2.2 mph 16 mph 70% 0.00 in 0 W/m2
06:04 38 °F 29.1 °F 30.00 in WNW 2.8 mph 16 mph 70% 0.00 in 0 W/m2
06:06 37.9 °F 29 °F 30.00 in WNW 1.2 mph 13 mph 70% 0.00 in 0 W/m2
06:30 37.4 °F 28.9 °F 30.00 in WNW 1 mph 13 mph 71% 0.00 in 0 W/m2
07:00 36.9 °F 29.1 °F 30.01 in West 1 mph 8 mph 73% 0.00 in 5 W/m2
07:30 37.8 °F 29.6 °F 30.03 in WNW 2 mph 12 mph 72% 0.00 in 23 W/m2
08:04 39.7 °F 30.8 °F 30.04 in WSW 2 mph 12 mph 70.2% 0.00 in 186 W/m2
08:09 40.3 °F 31.3 °F 30.04 in WSW 1.1 mph 7 mph 69.8% 0.00 in 202 W/m2
08:14 41.1 °F 32 °F 30.04 in West 2.1 mph 11 mph 69.7% 0.00 in 248 W/m2
08:19 42 °F 32 °F 30.04 in West 1.7 mph 11 mph 67.3% 0.00 in 269 W/m2
08:24 42.8 °F 32.3 °F 30.05 in West 1.1 mph 11 mph 66.2% 0.00 in 281 W/m2
08:29 43.5 °F 32.5 °F 30.04 in WNW 2.4 mph 12 mph 65% 0.00 in 290 W/m2
08:34 43.9 °F 32.3 °F 30.05 in West 5.6 mph 15 mph 63.3% 0.00 in 301 W/m2
08:39 44 °F 32 °F 30.05 in WNW 4.3 mph 15 mph 62.3% 0.00 in 309 W/m2
08:44 44.2 °F 32.3 °F 30.05 in West 5.8 mph 18 mph 62.8% 0.00 in 320 W/m2
08:49 44.3 °F 32.2 °F 30.05 in WNW 4.6 mph 18 mph 62.2% 0.00 in 330 W/m2
08:54 44.3 °F 32.1 °F 30.05 in WNW 5.9 mph 18 mph 61.8% 0.00 in 334 W/m2
08:59 44.2 °F 31.6 °F 30.05 in WNW 4.7 mph 18 mph 61% 0.00 in 341 W/m2
09:04 44 °F 31.4 °F 30.05 in West 7.7 mph 18 mph 61% 0.00 in 264 W/m2
09:09 43.6 °F 31.3 °F 30.05 in WNW 5.1 mph 18 mph 61.6% 0.00 in 70 W/m2
09:14 43.3 °F 31.4 °F 30.05 in West 3.4 mph 18 mph 62.5% 0.00 in 116 W/m2
09:19 43.1 °F 31.4 °F 30.05 in WNW 3.5 mph 18 mph 63% 0.00 in 276 W/m2
09:24 43.2 °F 31.6 °F 30.05 in West 4.5 mph 18 mph 63.3% 0.00 in 295 W/m2
09:29 43.3 °F 31.4 °F 30.06 in WNW 7 mph 18 mph 62.6% 0.00 in 199 W/m2
09:34 43.4 °F 31.7 °F 30.06 in WNW 5.1 mph 18 mph 63% 0.00 in 127 W/m2
09:39 43.4 °F 31.7 °F 30.05 in West 1.9 mph 14 mph 63% 0.00 in 163 W/m2
09:44 43.6 °F 31.8 °F 30.05 in West 3.6 mph 14 mph 62.8% 0.00 in 244 W/m2
09:49 43.9 °F 31.9 °F 30.05 in WNW 3.1 mph 14 mph 62.5% 0.00 in 341 W/m2
09:54 44.3 °F 32 °F 30.05 in NW 5.5 mph 16 mph 61.8% 0.00 in 336 W/m2
09:59 44.6 °F 31.8 °F 30.06 in WNW 7.2 mph 16 mph 60.5% 0.00 in 350 W/m2
10:04 44.9 °F 31.1 °F 30.06 in WNW 11 mph 20 mph 58.3% 0.00 in 478 W/m2
10:09 45.2 °F 31.3 °F 30.06 in WNW 7.4 mph 20 mph 58% 0.00 in 476 W/m2
10:14 45.7 °F 31.5 °F 30.06 in WNW 7 mph 20 mph 57.5% 0.00 in 454 W/m2
10:19 46.1 °F 32 °F 30.06 in WNW 3.9 mph 20 mph 57.7% 0.00 in 499 W/m2
10:24 46.7 °F 32.2 °F 30.06 in WNW 5.6 mph 20 mph 56.8% 0.00 in 506 W/m2
10:29 47.3 °F 32.6 °F 30.06 in WNW 3.4 mph 20 mph 56.6% 0.00 in 512 W/m2
10:34 47.9 °F 32.5 °F 30.06 in WNW 3.2 mph 20 mph 55% 0.00 in 515 W/m2
10:39 48.2 °F 32.7 °F 30.05 in WNW 5.7 mph 13 mph 54.7% 0.00 in 441 W/m2
10:44 48.2 °F 31.9 °F 30.05 in WNW 5.8 mph 13 mph 53.1% 0.00 in 216 W/m2
10:49 47.9 °F 31.9 °F 30.05 in NW 3.8 mph 13 mph 53.6% 0.00 in 158 W/m2
10:54 47.8 °F 32 °F 30.05 in NW 2.2 mph 13 mph 54.1% 0.00 in 151 W/m2
10:59 47.8 °F 32 °F 30.05 in WNW 2.9 mph 13 mph 54.1% 0.00 in 176 W/m2
11:04 47.9 °F 32.5 °F 30.05 in NW 1.2 mph 13 mph 54.8% 0.00 in 411 W/m2
11:09 48.2 °F 32.4 °F 30.05 in WNW 6.5 mph 16 mph 54.2% 0.00 in 446 W/m2
11:14 48 °F 31.4 °F 30.05 in West 4.4 mph 16 mph 52.3% 0.00 in 221 W/m2
11:19 48 °F 31.3 °F 30.05 in West 5.2 mph 16 mph 52.2% 0.00 in 322 W/m2
11:24 47.9 °F 31.1 °F 30.05 in West 5.4 mph 16 mph 52% 0.00 in 322 W/m2
11:29 47.9 °F 31.1 °F 30.05 in West 6.5 mph 16 mph 52% 0.00 in 213 W/m2
11:34 47.9 °F 31.4 °F 30.04 in WNW 4 mph 16 mph 52.6% 0.00 in 274 W/m2
11:39 48 °F 32 °F 30.05 in WNW 3.6 mph 13 mph 53.7% 0.00 in 171 W/m2
11:44 48.3 °F 32.1 °F 30.05 in WNW 5.2 mph 13 mph 53.2% 0.00 in 181 W/m2
11:49 48.2 °F 30.9 °F 30.05 in WNW 5.4 mph 17 mph 50.9% 0.00 in 181 W/m2
11:54 48 °F 31.4 °F 30.05 in NW 3.1 mph 17 mph 52.4% 0.00 in 202 W/m2
11:59 48 °F 31.3 °F 30.04 in NW 4.8 mph 17 mph 52.1% 0.00 in 202 W/m2
12:09 48.6 °F 32.5 °F 30.04 in NW 2.1 mph 11 mph 53.5% 0.00 in 98 W/m2
12:14 49 °F 32 °F 30.04 in WNW 3.4 mph 11 mph 51.8% 0.00 in 294 W/m2
12:19 49.3 °F 32.4 °F 30.04 in NW 2.8 mph 11 mph 52.1% 0.00 in 441 W/m2
12:24 49.4 °F 32.1 °F 30.04 in NW 3.5 mph 12 mph 51% 0.00 in 441 W/m2
12:29 49.6 °F 32.3 °F 30.04 in NW 4.4 mph 12 mph 51.2% 0.00 in 350 W/m2
12:34 49.7 °F 32 °F 30.04 in WNW 2.4 mph 12 mph 50.3% 0.00 in 218 W/m2
12:39 49.6 °F 32.1 °F 30.04 in WNW 2.2 mph 10 mph 50.7% 0.00 in 218 W/m2
12:44 49.5 °F 32 °F 30.04 in WNW 4.1 mph 11 mph 50.7% 0.00 in 155 W/m2
12:49 49.1 °F 31.5 °F 30.04 in WNW 4.8 mph 13 mph 50.5% 0.00 in 190 W/m2
12:54 48.7 °F 31.4 °F 30.04 in WNW 2 mph 13 mph 51% 0.00 in 250 W/m2
12:59 48.8 °F 32.2 °F 30.04 in NW 2.3 mph 13 mph 52.5% 0.00 in 209 W/m2
13:04 49 °F 32.1 °F 30.04 in NW 2.3 mph 13 mph 51.8% 0.00 in 155 W/m2
13:09 49.1 °F 31.5 °F 30.04 in NW 4.6 mph 12 mph 50.4% 0.00 in 199 W/m2
13:14 49 °F 31.2 °F 30.04 in WNW 3.7 mph 12 mph 50% 0.00 in 141 W/m2
13:19 48.7 °F 31.4 °F 30.04 in NW 3.6 mph 12 mph 51% 0.00 in 313 W/m2
13:24 48.7 °F 31.4 °F 30.04 in WNW 3.8 mph 12 mph 51% 0.00 in 352 W/m2
13:29 48.9 °F 31.8 °F 30.04 in WNW 2.8 mph 12 mph 51.6% 0.00 in 352 W/m2
13:34 49.1 °F 31.8 °F 30.04 in WNW 4.6 mph 14 mph 51.1% 0.00 in 158 W/m2
13:39 49.2 °F 32 °F 30.04 in WNW 2.6 mph 14 mph 51.2% 0.00 in 160 W/m2
13:44 49.2 °F 31.9 °F 30.04 in WNW 4.6 mph 14 mph 51% 0.00 in 176 W/m2
13:49 49 °F 31.8 °F 30.04 in NW 3.9 mph 14 mph 51.2% 0.00 in 200 W/m2
13:54 48.8 °F 32 °F 30.04 in NW 3.7 mph 14 mph 52% 0.00 in 127 W/m2
13:59 48.6 °F 31.8 °F 30.04 in WNW 2.5 mph 14 mph 52% 0.00 in 123 W/m2
14:04 48.5 °F 31.9 °F 30.04 in WNW 0.9 mph 14 mph 52.5% 0.00 in 163 W/m2
14:09 48.4 °F 32 °F 30.04 in NW 3.9 mph 10 mph 52.9% 0.00 in 118 W/m2
14:14 48.2 °F 31.9 °F 30.04 in WNW 3.6 mph 11 mph 53% 0.00 in 111 W/m2
14:19 48 °F 31.8 °F 30.04 in WNW 3.2 mph 11 mph 53.2% 0.00 in 72 W/m2
14:24 47.9 °F 31.9 °F 30.04 in WNW 0.9 mph 11 mph 53.6% 0.00 in 51 W/m2
14:29 47.7 °F 32.2 °F 30.04 in West 1.6 mph 11 mph 54.5% 0.00 in 62 W/m2
14:34 47.6 °F 31.8 °F 30.05 in WNW 3.3 mph 11 mph 54% 0.00 in 56 W/m2
14:39 47.5 °F 31.8 °F 30.05 in West 2.5 mph 9 mph 54.3% 0.00 in 56 W/m2
14:44 47.6 °F 32.2 °F 30.05 in WNW 2 mph 9 mph 55% 0.00 in 51 W/m2
14:49 47.7 °F 32.1 °F 30.05 in West 4.8 mph 14 mph 54.5% 0.00 in 35 W/m2
14:54 47.8 °F 31.3 °F 30.05 in West 4.8 mph 15 mph 52.6% 0.00 in 28 W/m2
14:59 47.8 °F 30.9 °F 30.05 in West 5.3 mph 15 mph 51.8% 0.00 in 26 W/m2
15:04 47.7 °F 31 °F 30.05 in West 4.3 mph 15 mph 52.1% 0.00 in 25 W/m2
15:09 47.6 °F 31 °F 30.05 in WNW 3.2 mph 13 mph 52.2% 0.00 in 25 W/m2
15:14 47.5 °F 31.2 °F 30.06 in WNW 2 mph 13 mph 53% 0.00 in 33 W/m2
15:19 47.3 °F 31.3 °F 30.06 in WNW 0.4 mph 13 mph 53.6% 0.00 in 40 W/m2
15:24 47.2 °F 31.1 °F 30.06 in WNW 1.7 mph 13 mph 53.5% 0.00 in 37 W/m2
15:29 47 °F 31 °F 30.06 in West 1.7 mph 13 mph 53.5% 0.00 in 37 W/m2
15:34 46.9 °F 31 °F 30.06 in West 1.4 mph 13 mph 53.5% 0.00 in 33 W/m2
15:39 46.9 °F 30.8 °F 30.06 in West 0.5 mph 6 mph 53.3% 0.00 in 33 W/m2
15:44 46.9 °F 31.1 °F 30.07 in West 0.4 mph 6 mph 54% 0.00 in 32 W/m2
15:49 46.9 °F 31.2 °F 30.06 in West 0.9 mph 6 mph 54.2% 0.00 in 26 W/m2
15:54 46.9 °F 31.1 °F 30.07 in West 0.8 mph 6 mph 54% 0.00 in 25 W/m2
15:59 47 °F 31.3 °F 30.07 in Calm   6 mph 54.2% 0.00 in 23 W/m2
16:00 47 °F 31.7 °F 30.06 in WNW 2 mph 6 mph 55% 0.00 in 21 W/m2
16:09 46.9 °F 30.9 °F 30.06 in West 1.7 mph 10 mph 53.4% 0.00 in 12 W/m2
16:14 46.9 °F 30.7 °F 30.07 in West 0.5 mph 10 mph 53.1% 0.00 in 12 W/m2
16:19 46.7 °F 30.8 °F 30.07 in West 1 mph 10 mph 53.6% 0.00 in 9 W/m2
16:24 46.6 °F 31.1 °F 30.07 in WSW 0.2 mph 10 mph 54.5% 0.00 in 5 W/m2
16:29 46.5 °F 31.2 °F 30.07 in WSW 0.1 mph 10 mph 55% 0.00 in 0 W/m2
16:34 46.4 °F 31.1 °F 30.07 in WSW 0.5 mph 10 mph 55% 0.00 in 0 W/m2
16:39 46.3 °F 31.1 °F 30.08 in WSW 0.1 mph 7 mph 55.2% 0.00 in 0 W/m2
16:44 46.1 °F 31.3 °F 30.08 in WSW 0.3 mph 7 mph 56% 0.00 in 0 W/m2
16:49 46 °F 31.2 °F 30.08 in WSW 0.2 mph 7 mph 56% 0.00 in 0 W/m2
16:54 46 °F 31.2 °F 30.09 in Calm   7 mph 56% 0.00 in 0 W/m2
16:59 45.9 °F 31.3 °F 30.09 in Calm   7 mph 56.4% 0.00 in 0 W/m2
17:04 45.8 °F 31 °F 30.09 in Calm   7 mph 56.1% 0.00 in 0 W/m2
17:09 45.6 °F 30.8 °F 30.09 in Calm   1 mph 56% 0.00 in 0 W/m2
17:14 45.4 °F 30.7 °F 30.10 in WSW 0.1 mph 2 mph 56% 0.00 in 0 W/m2
17:19 45.2 °F 30.5 °F 30.10 in Calm   2 mph 56% 0.00 in 0 W/m2
17:24 45.1 °F 30.6 °F 30.10 in Calm   2 mph 56.6% 0.00 in 0 W/m2
17:29 44.9 °F 30.8 °F 30.10 in Calm   2 mph 57.4% 0.00 in 0 W/m2
17:34 44.7 °F 30.8 °F 30.10 in Calm   2 mph 58% 0.00 in 0 W/m2
17:39 44.4 °F 30.6 °F 30.11 in Calm     58% 0.00 in 0 W/m2
17:44 44.2 °F 30.5 °F 30.11 in Calm     58.4% 0.00 in 0 W/m2
17:49 44 °F 30.6 °F 30.11 in Calm     59% 0.00 in 0 W/m2
17:54 43.9 °F 30.9 °F 30.11 in Calm     60% 0.00 in 0 W/m2
17:59 43.8 °F 31.2 °F 30.11 in Calm     60.8% 0.00 in 0 W/m2
18:04 43.7 °F 30.9 °F 30.11 in Calm     60.6% 0.00 in 0 W/m2
18:09 43.6 °F 31 °F 30.11 in Calm     60.8% 0.00 in 0 W/m2
18:14 43.5 °F 30.9 °F 30.11 in Calm     61% 0.00 in 0 W/m2
18:19 43.3 °F 30.4 °F 30.12 in Calm     59.9% 0.00 in 0 W/m2
18:24 43.2 °F 30 °F 30.11 in Calm     59.3% 0.00 in 0 W/m2
18:29 43.1 °F 30.2 °F 30.12 in WSW 0.1 mph 2 mph 60.1% 0.00 in 0 W/m2
18:34 42.9 °F 30.4 °F 30.12 in Calm   2 mph 61% 0.00 in 0 W/m2
18:39 42.7 °F 30.2 °F 30.12 in Calm     61% 0.00 in 0 W/m2
18:44 42.5 °F 30 °F 30.12 in Calm     61% 0.00 in 0 W/m2
18:49 42.3 °F 29.8 °F 30.12 in Calm     61% 0.00 in 0 W/m2
18:54 42 °F 29.8 °F 30.13 in Calm     61.5% 0.00 in 0 W/m2
18:59 41.9 °F 29.8 °F 30.13 in WSW 0.1 mph 2 mph 62% 0.00 in 0 W/m2
19:04 41.7 °F 29.8 °F 30.14 in Calm   2 mph 62.4% 0.00 in 0 W/m2
19:09 41.5 °F 29.8 °F 30.14 in Calm   1 mph 63% 0.00 in 0 W/m2
19:14 41.3 °F 29.7 °F 30.14 in Calm   1 mph 63% 0.00 in 0 W/m2
19:19 41.2 °F 29.6 °F 30.14 in Calm   1 mph 63% 0.00 in 0 W/m2
19:24 41.1 °F 29.7 °F 30.15 in Calm   1 mph 63.5% 0.00 in 0 W/m2
19:29 41 °F 29.7 °F 30.15 in Calm   1 mph 64% 0.00 in 0 W/m2
19:34 40.8 °F 29.9 °F 30.15 in Calm   1 mph 64.8% 0.00 in 0 W/m2
19:39 40.6 °F 29.9 °F 30.16 in Calm     65.3% 0.00 in 0 W/m2
19:44 40.5 °F 30 °F 30.16 in Calm     66% 0.00 in 0 W/m2
19:49 40.4 °F 30 °F 30.16 in WSW 0.2 mph 2 mph 66% 0.00 in 0 W/m2
19:54 40.3 °F 30.1 °F 30.16 in WSW 0.1 mph 2 mph 66.6% 0.00 in 0 W/m2
19:59 40.1 °F 29.8 °F 30.16 in Calm   2 mph 66.3% 0.00 in 0 W/m2
20:09 39.8 °F 29.8 °F 30.16 in Calm     67% 0.00 in 0 W/m2
20:14 39.7 °F 29.8 °F 30.17 in Calm     67.4% 0.00 in 0 W/m2
20:19 39.5 °F 29.7 °F 30.17 in Calm     67.7% 0.00 in 0 W/m2
20:24 39.3 °F 29.6 °F 30.17 in Calm     68% 0.00 in 0 W/m2
20:29 39 °F 29.7 °F 30.17 in Calm     69% 0.00 in 0 W/m2
20:34 38.8 °F 29.7 °F 30.17 in Calm     69.6% 0.00 in 0 W/m2
20:39 38.6 °F 29.9 °F 30.17 in Calm     70.7% 0.00 in 0 W/m2
20:44 38.5 °F 29.9 °F 30.17 in Calm     71% 0.00 in 0 W/m2
20:49 38.3 °F 29.9 °F 30.17 in Calm     71.3% 0.00 in 0 W/m2
20:54 38.2 °F 30 °F 30.17 in Calm     72% 0.00 in 0 W/m2
20:59 38 °F 29.8 °F 30.17 in Calm     72% 0.00 in 0 W/m2
21:04 37.9 °F 29.8 °F 30.18 in Calm     72.4% 0.00 in 0 W/m2
21:09 37.7 °F 29.9 °F 30.18 in Calm     73% 0.00 in 0 W/m2
21:14 37.5 °F 30 °F 30.18 in Calm     74% 0.00 in 0 W/m2
21:19 37.3 °F 29.8 °F 30.18 in Calm     74% 0.00 in 0 W/m2
21:24 37.1 °F 29.6 °F 30.18 in Calm     74.1% 0.00 in 0 W/m2
21:29 36.9 °F 29.7 °F 30.19 in Calm     75% 0.00 in 0 W/m2
21:34 36.6 °F 29.7 °F 30.19 in WSW 0.2 mph 2 mph 75.9% 0.00 in 0 W/m2
21:39 36.2 °F 29.7 °F 30.19 in Calm   2 mph 76.9% 0.00 in 0 W/m2
21:44 36 °F 29.5 °F 30.18 in Calm   2 mph 77% 0.00 in 0 W/m2
21:49 35.8 °F 29.3 °F 30.18 in Calm   2 mph 77% 0.00 in 0 W/m2
21:54 35.6 °F 29.2 °F 30.18 in Calm   2 mph 77.1% 0.00 in 0 W/m2
21:59 35.5 °F 29.3 °F 30.19 in Calm   2 mph 78% 0.00 in 0 W/m2
22:04 35.3 °F 29.2 °F 30.19 in Calm   2 mph 78.1% 0.00 in 0 W/m2
22:09 35.2 °F 29.3 °F 30.19 in Calm     79% 0.00 in 0 W/m2
22:14 35 °F 29.3 °F 30.19 in Calm     79.2% 0.00 in 0 W/m2
22:19 34.9 °F 29.4 °F 30.19 in Calm     80% 0.00 in 0 W/m2
22:24 34.8 °F 29.3 °F 30.19 in Calm     80.2% 0.00 in 0 W/m2
22:29 34.7 °F 29.4 °F 30.19 in Calm     80.8% 0.00 in 0 W/m2
22:34 34.6 °F 29.5 °F 30.19 in Calm     81.3% 0.00 in 0 W/m2
22:39 34.6 °F 29.7 °F 30.20 in WSW 0.3 mph 2 mph 82% 0.00 in 0 W/m2
22:44 34.4 °F 29.2 °F 30.20 in Calm   2 mph 81.1% 0.00 in 0 W/m2
22:49 34.1 °F 29.1 °F 30.20 in Calm   2 mph 81.9% 0.00 in 0 W/m2
22:54 33.9 °F 29.1 °F 30.21 in Calm   2 mph 82.3% 0.00 in 0 W/m2
22:59 33.7 °F 29.1 °F 30.21 in Calm   2 mph 83% 0.00 in 0 W/m2
23:00 33.7 °F 29.1 °F 30.20 in Calm   2 mph 83% 0.00 in 0 W/m2
23:09 33.6 °F 29.3 °F 30.21 in Calm     84.1% 0.00 in 0 W/m2
23:14 33.7 °F 29.7 °F 30.21 in Calm     85% 0.00 in 0 W/m2
23:19 33.8 °F 29.8 °F 30.21 in Calm     85% 0.00 in 0 W/m2
23:24 33.9 °F 29.9 °F 30.21 in Calm     85% 0.00 in 0 W/m2
23:29 34 °F 30 °F 30.22 in Calm     85% 0.00 in 0 W/m2
23:34 34 °F 30 °F 30.22 in Calm     85% 0.00 in 0 W/m2
23:39 33.8 °F 29.8 °F 30.22 in Calm     85% 0.00 in 0 W/m2
23:44 33.7 °F 29.7 °F 30.22 in Calm     85.1% 0.00 in 0 W/m2
23:49 33.6 °F 29.8 °F 30.22 in Calm     86% 0.00 in 0 W/m2
23:54 33.5 °F 29.9 °F 30.22 in Calm     86.4% 0.00 in 0 W/m2
23:59 33.5 °F 30 °F 30.22 in Calm     87% 0.00 in 0 W/m2
Hartford County Weather
Compliments of Weather Underground - 4 mb